Airfield :
LOGIN :

Register | Disclaimer

   EN    FR    IT 

 










Legend :    VFR   Marginal VFR   IFR   Intensive IFR   Very Intensive IFR
Visi :
Ceiling :
>= 8 km
>= 3000ft
5 to 8 km
1000 to 3000 ft
1500m to 5 km
500 to 1000 ft
800 to 1500m
200 to 500 ft
< 800m
< 200 ft
Symbols :   Thunderstorms  Fog  Heavy snow  Heavy precipitations  Wind > 20 kt
SIGMETs :     Misc.  Thunderstorms  Icing  Turbulence  Mountain Waves  Volcanic Ashes






- Airport Elevation : 290 ft
- IATA code : LAI


LFRO - Lannion

CURRENT METAR :
  • 162030Z AUTO 24004KT 9999 FEW018 SCT031 BKN039 14/12 Q1008

EXPIRED METARs :
  • 162000Z AUTO 25003KT 9999 BKN026 BKN034 BKN044 14/11 Q1008
  • 161930Z AUTO VRB03KT 9999 OVC031 14/12 Q1008
  • 161900Z AUTO 27005KT 9999 BKN033 OVC039 14/11 Q1008
  • 161830Z AUTO 28006KT 9999 FEW014 OVC052 14/12 Q1007
  • 161800Z AUTO 29007KT 9999 BKN015 OVC052 15/12 Q1007
  • 161730Z AUTO 28006KT CAVOK 15/11 Q1007
  • 161700Z AUTO 29008KT 9999 FEW032 OVC052 15/11 Q1007
  • 161630Z AUTO 28006KT 9999 FEW030 OVC052 15/11 Q1007
  • 161600Z AUTO 29006KT 240V310 9999 SCT031 OVC050 15/11 Q1007

Expired Forecast.



MET'MAP, your aeronautical weather chart ! - Copyright ORBIFLY December 2007 - Disclaimer

ORBIFLY MET'MAP TEAM :

Programming & Development : Alexandra Zaïnal
Original concept : Baudouin d'Aumeries
Technical & hardware support : Manuel Goepfert
Assistance : Marc-Olivier Méhu




SOURCES & CREDITS :

   NOAA